CWEU

Eureka Airport

Eureka, Canada

CWEU 221800Z 36014G21KT 15SM FEW005 FEW012 BKN035 02/M01 A2979 RMK SC1SC2SC5 SC TR SLP090

Observed Flight Rules
Aug-22 @ 18:00 UTC (48 minutes ago)
 
Visual Flight Rules
Wind Visibility Clouds
360° at 14 knots
 Gusting to 21 knots
15 miles
  • Few at 500' AGL
  • Few at 1,200' AGL
  • Broken at 3,500' AGL
Temperatures Readings
Current 2°C / 36°F
Dewpoint -1°C / 30°F
Humidity 81%
Altimeter 29.79" Hg
Pressure 1009 hPa
Elevation 10
Observed Flight Rules
Aug-22 @ 18:00 UTC
(48 minutes ago)
 
VFR
Wind Visibility
360° at 14 knots
 Gusting to 21 knots
15 miles
Clouds
  • Few at 500' AGL
  • Few at 1,200' AGL
  • Broken at 3,500' AGL
Temperature Dewpoint
2°C / 36°F -1°C / 30°F
Humidity Altimeter Pressure
81% 29.79" Hg 1009 hPa